»·PEaware :: TEXAN22 KRND-KRND

TEXAN22 :: KRND-KRND

FLIGHT INFORMATION

Flight Status: Arrived
Operator: Unknown
More flights by this operator :: More flights under this callsign
Pilot: Indie I. (23343)
Aircraft: BEECH AIRCRAFT T-6A TEXAN
(TEX2)
More flights by this aircraft type
Origin: KRND Randolph AFB
United States
Destination: KRND Randolph AFB
United States
More flights between these airports :: More routes between these airports
Route: SR-287
File this flight plan on PilotEdge
Remarks: FALLS6, VFR to SR-287
Altitude:
(Current/Filed)
4,000ft
Speed:
(Current/Filed)
250kts
Departed: 29-Apr-20 11:51 AM
Arrived: 29-Apr-20 12:52 PM
Distance/Time
Traveled:
0nm/1:00
Distance/Time
To Go:
Arrived

Flight Plot

Page will automatically refresh every two minutes.

Flight plan parsing failed; only flown route is shown


Map Options




Map Legend


Flown Route
Filed Route
Departure Airport
Arrival Airport
Navaid (VOR, NDB)
Fix

Horizontal Profiles

Position Reports

Time Latitude Longitude Heading Altitude Ground
Speed
29-Apr-20 11:45 29.534817 -98.290788 278 765ft 0kts
29-Apr-20 11:46 29.534817 -98.290790 278 765ft 0kts
29-Apr-20 11:47 29.534821 -98.290815 281 765ft 2kts
29-Apr-20 11:49 29.534990 -98.291528 284 765ft 0kts
29-Apr-20 11:49 29.534407 -98.292883 149 765ft 6kts
29-Apr-20 11:50 29.505876 -98.278655 184 1432ft 187kts
29-Apr-20 11:51 29.450069 -98.264650 170 3176ft 224kts
29-Apr-20 11:52 29.391048 -98.248119 164 5094ft 202kts
29-Apr-20 11:53 29.332719 -98.229907 163 5664ft 223kts
29-Apr-20 11:54 29.272292 -98.210300 168 5583ft 221kts
29-Apr-20 11:55 29.212023 -98.194793 167 5511ft 215kts
29-Apr-20 11:56 29.154633 -98.177251 139 5035ft 218kts
29-Apr-20 11:57 29.111654 -98.143925 245 1894ft 233kts
29-Apr-20 11:58 29.107527 -98.168951 254 1798ft 205kts
29-Apr-20 11:59 29.089927 -98.196310 231 1572ft 187kts
29-Apr-20 12:00 29.053916 -98.242714 231 1325ft 198kts
29-Apr-20 12:01 29.016392 -98.292909 216 1451ft 196kts
29-Apr-20 12:02 28.979093 -98.346100 240 792ft 232kts
29-Apr-20 12:03 28.936855 -98.394842 221 1299ft 209kts
29-Apr-20 12:04 28.897693 -98.444147 174 1224ft 210kts
29-Apr-20 12:05 28.838219 -98.440121 182 1137ft 206kts
29-Apr-20 12:06 28.787515 -98.421364 182 1043ft 217kts
29-Apr-20 12:07 28.727569 -98.420890 181 1233ft 203kts
29-Apr-20 12:08 28.671107 -98.415403 124 1246ft 204kts
29-Apr-20 12:09 28.678395 -98.341178 77 1482ft 257kts
29-Apr-20 12:10 28.685387 -98.266338 83 816ft 217kts
29-Apr-20 12:11 28.692056 -98.204083 80 912ft 193kts
29-Apr-20 12:12 28.698850 -98.142938 83 1132ft 195kts
29-Apr-20 12:13 28.710161 -98.075823 68 1024ft 236kts
29-Apr-20 12:14 28.735432 -98.010054 69 1702ft 229kts
29-Apr-20 12:15 28.761970 -97.941275 65 1380ft 241kts
29-Apr-20 12:16 28.766261 -97.877826 95 1282ft 229kts
29-Apr-20 12:17 28.766318 -97.846787 94 1387ft 213kts
29-Apr-20 12:18 28.767755 -97.784098 86 1267ft 217kts
29-Apr-20 12:19 28.769407 -97.714627 89 802ft 214kts
29-Apr-20 12:20 28.766150 -97.647389 93 906ft 208kts
29-Apr-20 12:21 28.811164 -97.621901 3 944ft 231kts
29-Apr-20 12:22 28.872992 -97.607781 4 984ft 219kts
29-Apr-20 12:23 28.917263 -97.614742 315 897ft 192kts
29-Apr-20 12:24 28.950739 -97.656336 315 695ft 181kts
29-Apr-20 12:25 28.986654 -97.698768 317 1672ft 206kts
29-Apr-20 12:26 29.028553 -97.755289 311 1514ft 233kts
29-Apr-20 12:27 29.070538 -97.811401 317 2023ft 203kts
29-Apr-20 12:28 29.116103 -97.860707 340 1155ft 237kts
29-Apr-20 12:29 29.173381 -97.905816 322 906ft 240kts
29-Apr-20 12:30 29.223303 -97.949626 326 1456ft 199kts
29-Apr-20 12:31 29.258224 -98.007504 308 2201ft 236kts
29-Apr-20 12:32 29.296183 -98.065162 307 4692ft 210kts
29-Apr-20 12:33 29.332993 -98.121052 303 5043ft 213kts
29-Apr-20 12:34 29.369084 -98.175223 314 4494ft 219kts
29-Apr-20 12:35 29.402462 -98.220992 297 4116ft 223kts
29-Apr-20 12:36 29.431564 -98.276845 292 4387ft 196kts
29-Apr-20 12:37 29.460066 -98.330196 326 3626ft 175kts
29-Apr-20 12:38 29.502719 -98.327826 31 1498ft 183kts
29-Apr-20 12:39 29.554378 -98.344121 2 1974ft 225kts
29-Apr-20 12:40 29.539358 -98.296420 149 1769ft 213kts
29-Apr-20 12:41 29.528540 -98.309172 335 1795ft 134kts
29-Apr-20 12:42 29.537607 -98.295139 148 841ft 124kts
29-Apr-20 12:43 29.508948 -98.285486 294 1667ft 164kts
29-Apr-20 12:44 29.543418 -98.309642 21 1717ft 125kts
29-Apr-20 12:45 29.526658 -98.287761 151 802ft 109kts
29-Apr-20 12:46 29.496584 -98.300383 290 1774ft 207kts
29-Apr-20 12:47 29.545962 -98.339762 327 1743ft 225kts
29-Apr-20 12:48 29.587423 -98.350530 61 1440ft 160kts
29-Apr-20 12:49 29.568728 -98.315707 147 1212ft 141kts
29-Apr-20 12:50 29.536272 -98.293999 149 793ft 115kts
29-Apr-20 12:51 29.526618 -98.286795 66 765ft 0kts

Navigation Log

Ident Type
Flight plan parsing failed, navigation log unavailable